Time;durP1;ratioP1;P1;durP2;ratioP2;P2;SDS_P1;SDS_P2;PMS_P1;PMS_P2;Temp;Humidity;BMP_temperature;BMP_pressure;BME280_temperature;BME280_humidity;BME280_pressure;Samples;Min_cycle;Max_cycle;Signal;HPM_P1;HPM_P2
2022/07/13 00:00:10;;;;;;;1.57;1.27;;;21.20;99.90;;;;;;5033559;28;20274;-43
2022/07/13 00:02:35;;;;;;;1.43;1.23;;;21.10;99.90;;;;;;5033801;28;20173;-42
2022/07/13 00:05:01;;;;;;;3.97;1.43;;;21.20;99.90;;;;;;5033731;28;20295;-42
2022/07/13 00:07:27;;;;;;;5.13;1.57;;;21.10;99.90;;;;;;5033455;28;20648;-44
2022/07/13 00:09:52;;;;;;;3.50;1.30;;;21.00;99.90;;;;;;5034512;28;20236;-43
2022/07/13 00:12:18;;;;;;;1.63;1.40;;;21.10;99.90;;;;;;5033684;28;20268;-44
2022/07/13 00:14:43;;;;;;;1.63;1.30;;;21.10;99.90;;;;;;5033367;28;20177;-44
2022/07/13 00:17:09;;;;;;;1.80;1.23;;;21.00;99.90;;;;;;5033369;28;20204;-44
2022/07/13 00:19:34;;;;;;;3.10;1.57;;;21.00;99.90;;;;;;5032335;28;20247;-43
2022/07/13 00:22:00;;;;;;;4.00;1.90;;;21.00;99.90;;;;;;5033279;28;20779;-42
2022/07/13 00:24:26;;;;;;;5.53;1.70;;;20.90;99.90;;;;;;5033737;28;20259;-39
2022/07/13 00:26:51;;;;;;;2.77;1.40;;;20.90;99.90;;;;;;5033695;28;20239;-40
2022/07/13 00:29:17;;;;;;;3.33;1.40;;;20.90;99.90;;;;;;5033163;28;20192;-40
2022/07/13 00:31:42;;;;;;;1.40;1.30;;;20.90;99.90;;;;;;5033144;28;20183;-39
2022/07/13 00:34:08;;;;;;;3.63;1.53;;;20.90;99.90;;;;;;5033243;28;20208;-36
2022/07/13 00:36:34;;;;;;;4.37;1.77;;;20.90;99.90;;;;;;5033382;28;20177;-40
2022/07/13 00:39:00;;;;;;;1.90;1.37;;;20.80;99.90;;;;;;5034637;28;20647;-38
2022/07/13 00:41:25;;;;;;;3.30;2.23;;;20.80;99.90;;;;;;5037212;28;20181;-41
2022/07/13 00:43:52;;;;;;;6.07;1.70;;;20.70;99.90;;;;;;5037097;28;20173;-38
2022/07/13 00:46:18;;;;;;;2.07;1.60;;;20.70;99.90;;;;;;5037460;28;20185;-39
2022/07/13 00:48:43;;;;;;;3.53;1.50;;;20.60;99.90;;;;;;5037280;28;20203;-40
2022/07/13 00:51:09;;;;;;;3.77;1.70;;;20.60;99.90;;;;;;5036935;28;20200;-40
2022/07/13 00:53:39;;;;;;;1.53;1.43;;;20.50;99.90;;;;;;5036889;28;20259;-39
2022/07/13 00:56:05;;;;;;;1.50;1.40;;;20.60;99.90;;;;;;5036907;28;20177;-37
2022/07/13 00:58:32;;;;;;;1.73;1.60;;;20.50;99.90;;;;;;5036708;28;20205;-40
2022/07/13 01:00:57;;;;;;;3.87;1.60;;;20.50;99.90;;;;;;5036714;28;20664;-38
2022/07/13 01:03:23;;;;;;;6.40;1.63;;;20.40;99.90;;;;;;5037013;28;20181;-40
2022/07/13 01:05:50;;;;;;;1.73;1.40;;;20.40;99.90;;;;;;5037203;28;20256;-40
2022/07/13 01:08:18;;;;;;;2.43;1.50;;;20.40;99.90;;;;;;5036857;28;20191;-39
2022/07/13 01:10:44;;;;;;;2.00;1.50;;;20.30;99.90;;;;;;5036824;28;20575;-38
2022/07/13 01:13:12;;;;;;;5.30;1.73;;;20.30;99.90;;;;;;5036792;28;20184;-39
2022/07/13 01:15:38;;;;;;;2.10;1.60;;;20.20;99.90;;;;;;5036505;28;20641;-39
2022/07/13 01:18:04;;;;;;;1.83;1.57;;;20.20;99.90;;;;;;5034921;28;20217;-38
2022/07/13 01:20:30;;;;;;;1.50;1.40;;;20.10;99.90;;;;;;5036609;28;20196;-41
2022/07/13 01:22:57;;;;;;;3.33;1.50;;;20.10;99.90;;;;;;5036359;28;20177;-39
2022/07/13 01:25:22;;;;;;;3.53;1.50;;;20.10;99.90;;;;;;5036564;28;20655;-37
2022/07/13 01:27:49;;;;;;;7.13;1.60;;;20.10;99.90;;;;;;5036257;28;20181;-38
2022/07/13 01:30:16;;;;;;;4.20;1.60;;;20.10;99.90;;;;;;5036369;28;20204;-39
2022/07/13 01:32:46;;;;;;;4.00;1.87;;;20.00;99.90;;;;;;5036165;28;20181;-40
2022/07/13 01:35:12;;;;;;;5.00;1.90;;;20.00;99.90;;;;;;5036417;28;20176;-38
2022/07/13 01:37:38;;;;;;;3.07;1.80;;;20.00;99.90;;;;;;5036011;28;20205;-39
2022/07/13 01:40:04;;;;;;;3.43;1.60;;;19.90;99.90;;;;;;5036171;28;20228;-39
2022/07/13 01:42:30;;;;;;;2.50;1.50;;;20.00;99.90;;;;;;5036457;28;20188;-39
2022/07/13 01:44:57;;;;;;;3.63;1.43;;;19.90;99.90;;;;;;5036096;28;20534;-40
2022/07/13 01:47:23;;;;;;;2.83;1.60;;;19.90;99.90;;;;;;5035924;28;20177;-40
2022/07/13 01:49:48;;;;;;;2.00;1.60;;;19.90;99.90;;;;;;5035823;28;20212;-42
2022/07/13 01:52:14;;;;;;;5.93;1.60;;;19.90;99.90;;;;;;5035797;28;20239;-41
2022/07/13 01:54:40;;;;;;;3.10;1.50;;;19.90;99.90;;;;;;5035745;28;20682;-39
2022/07/13 01:57:05;;;;;;;2.43;1.80;;;19.90;99.90;;;;;;5035899;28;20204;-41
2022/07/13 01:59:31;;;;;;;2.07;1.43;;;19.90;99.90;;;;;;5034405;28;20204;-41
2022/07/13 02:01:56;;;;;;;1.60;1.50;;;19.90;99.90;;;;;;5035908;28;20209;-40
2022/07/13 02:04:22;;;;;;;6.30;1.93;;;19.90;99.90;;;;;;5035551;28;20559;-41
2022/07/13 02:06:49;;;;;;;6.53;2.10;;;19.90;99.90;;;;;;5035562;28;20173;-39
2022/07/13 02:09:15;;;;;;;4.60;1.60;;;19.80;99.90;;;;;;5035670;28;20196;-41
2022/07/13 02:11:40;;;;;;;10.83;1.90;;;19.80;99.90;;;;;;5035691;28;20636;-40
2022/07/13 02:14:06;;;;;;;2.33;1.60;;;19.80;99.90;;;;;;5035638;28;20510;-40
2022/07/13 02:16:31;;;;;;;4.77;2.20;;;19.80;99.90;;;;;;5035188;28;20282;-39
2022/07/13 02:18:57;;;;;;;3.30;1.83;;;19.80;99.90;;;;;;5035293;28;20169;-40
2022/07/13 02:21:22;;;;;;;4.90;2.20;;;19.70;99.90;;;;;;5035184;28;20181;-38
2022/07/13 02:23:48;;;;;;;5.17;2.20;;;19.70;99.90;;;;;;5035351;28;20177;-38
2022/07/13 02:26:13;;;;;;;1.90;1.63;;;19.70;99.90;;;;;;5035453;28;20183;-37
2022/07/13 02:28:39;;;;;;;6.67;1.90;;;19.70;99.90;;;;;;5035137;28;20712;-41
2022/07/13 02:31:05;;;;;;;2.93;1.90;;;19.70;99.90;;;;;;5034997;28;20621;-41
2022/07/13 02:33:30;;;;;;;5.13;2.03;;;19.60;99.90;;;;;;5035055;28;20543;-41
2022/07/13 02:35:56;;;;;;;3.43;1.67;;;19.60;99.90;;;;;;5035257;28;20188;-41
2022/07/13 02:38:21;;;;;;;5.77;1.90;;;19.60;99.90;;;;;;5034858;28;20676;-40
2022/07/13 02:40:47;;;;;;;5.20;1.90;;;19.60;99.90;;;;;;5034851;28;20292;-40
2022/07/13 02:43:13;;;;;;;6.10;2.20;;;19.50;99.90;;;;;;5034862;28;20176;-40
2022/07/13 02:45:38;;;;;;;4.93;2.37;;;19.50;99.90;;;;;;5035536;28;20177;-39
2022/07/13 02:48:04;;;;;;;3.77;2.00;;;19.50;99.90;;;;;;5035090;28;20544;-40
2022/07/13 02:50:29;;;;;;;4.03;1.90;;;19.40;99.90;;;;;;5034957;28;20557;-40
2022/07/13 02:52:55;;;;;;;6.93;1.80;;;19.40;99.90;;;;;;5035190;28;20655;-40
2022/07/13 02:55:20;;;;;;;5.07;2.17;;;19.40;99.90;;;;;;5034600;28;20192;-40
2022/07/13 02:57:46;;;;;;;6.03;2.17;;;19.40;99.90;;;;;;5033279;28;20208;-40
2022/07/13 03:00:12;;;;;;;3.97;1.97;;;19.30;99.90;;;;;;5034385;28;20284;-40
2022/07/13 03:02:38;;;;;;;5.40;1.83;;;19.30;99.90;;;;;;5033919;28;20230;-40
2022/07/13 03:05:04;;;;;;;5.43;1.70;;;19.30;99.90;;;;;;5034682;28;20173;-41
2022/07/13 03:07:30;;;;;;;6.17;1.90;;;19.30;99.90;;;;;;5034639;28;20236;-40
2022/07/13 03:09:55;;;;;;;6.83;2.20;;;19.30;99.90;;;;;;5034307;28;20201;-41
2022/07/13 03:12:21;;;;;;;1.83;1.57;;;19.30;99.90;;;;;;5034466;28;20213;-41
2022/07/13 03:14:46;;;;;;;6.00;1.90;;;19.30;99.90;;;;;;5034213;28;20262;-40
2022/07/13 03:17:12;;;;;;;3.00;1.60;;;19.30;99.90;;;;;;5034269;28;20308;-40
2022/07/13 03:19:38;;;;;;;9.10;2.23;;;19.30;99.90;;;;;;5034433;28;20561;-40
2022/07/13 03:22:04;;;;;;;6.67;1.80;;;19.30;99.90;;;;;;5034459;28;20215;-42
2022/07/13 03:24:30;;;;;;;4.20;2.10;;;19.30;99.90;;;;;;5036769;28;20181;-40
2022/07/13 03:26:56;;;;;;;4.30;1.90;;;19.30;99.90;;;;;;5037732;28;20185;-39
2022/07/13 03:29:21;;;;;;;3.33;1.63;;;19.30;99.90;;;;;;5034007;28;20211;-39
2022/07/13 03:31:47;;;;;;;5.60;2.07;;;19.30;99.90;;;;;;5034174;28;20177;-39
2022/07/13 03:34:12;;;;;;;4.77;1.97;;;19.30;99.90;;;;;;5033970;28;20235;-39
2022/07/13 03:36:38;;;;;;;3.67;1.70;;;19.30;99.90;;;;;;5033770;28;20255;-38
2022/07/13 03:39:04;;;;;;;7.00;1.80;;;19.30;99.90;;;;;;5033957;28;20600;-39
2022/07/13 03:41:29;;;;;;;4.30;1.77;;;19.30;99.90;;;;;;5033781;28;20173;-38
2022/07/13 03:43:55;;;;;;;6.93;2.10;;;19.30;99.90;;;;;;5033685;28;20173;-39
2022/07/13 03:46:20;;;;;;;7.33;1.93;;;19.20;99.90;;;;;;5034183;28;20176;-39
2022/07/13 03:48:46;;;;;;;3.73;1.90;;;19.30;99.90;;;;;;5034146;28;20528;-36
2022/07/13 03:51:11;;;;;;;4.63;1.60;;;19.30;99.90;;;;;;5034135;28;20181;-38
2022/07/13 03:53:37;;;;;;;2.40;1.63;;;19.30;99.90;;;;;;5033623;28;20584;-38
2022/07/13 03:56:02;;;;;;;4.97;2.00;;;19.30;99.90;;;;;;5033786;28;20674;-41
2022/07/13 03:58:28;;;;;;;8.37;2.03;;;19.30;99.90;;;;;;5033848;28;20567;-38
2022/07/13 04:00:55;;;;;;;2.70;1.60;;;19.30;99.90;;;;;;5033527;28;20319;-41
2022/07/13 04:03:20;;;;;;;7.73;2.00;;;19.30;99.90;;;;;;5033637;28;20211;-41
2022/07/13 04:05:46;;;;;;;3.53;1.47;;;19.30;99.90;;;;;;5034103;28;20189;-40
2022/07/13 04:08:12;;;;;;;6.53;2.33;;;19.30;99.90;;;;;;5034047;28;20181;-40
2022/07/13 04:10:37;;;;;;;4.90;2.00;;;19.30;99.90;;;;;;5033666;28;20722;-39
2022/07/13 04:13:03;;;;;;;4.77;2.17;;;19.30;99.90;;;;;;5033531;28;20184;-39
2022/07/13 04:15:28;;;;;;;2.17;1.37;;;19.30;99.90;;;;;;5033681;28;20284;-40
2022/07/13 04:17:54;;;;;;;6.00;1.87;;;19.30;99.90;;;;;;5033283;28;20216;-38
2022/07/13 04:20:20;;;;;;;5.23;1.93;;;19.30;99.90;;;;;;5033333;28;20195;-40
2022/07/13 04:22:45;;;;;;;4.97;1.60;;;19.30;99.90;;;;;;5033667;28;20574;-40
2022/07/13 04:25:11;;;;;;;6.93;2.13;;;19.30;99.90;;;;;;5033373;28;20200;-40
2022/07/13 04:27:37;;;;;;;4.87;2.07;;;19.30;99.90;;;;;;5033269;28;20188;-39
2022/07/13 04:30:03;;;;;;;3.00;1.90;;;19.30;99.90;;;;;;5033191;28;20246;-38
2022/07/13 04:32:29;;;;;;;3.80;1.97;;;19.30;99.90;;;;;;5033611;28;20165;-38
2022/07/13 04:34:54;;;;;;;6.17;1.90;;;19.40;99.90;;;;;;5033587;28;20212;-39
2022/07/13 04:37:20;;;;;;;4.00;1.73;;;19.40;99.90;;;;;;5033483;28;20224;-39
2022/07/13 04:39:45;;;;;;;6.17;1.97;;;19.40;99.90;;;;;;5033460;28;20232;-39
2022/07/13 04:42:11;;;;;;;5.37;1.93;;;19.40;99.90;;;;;;5033113;28;20180;-39
2022/07/13 04:44:37;;;;;;;4.77;1.80;;;19.50;99.90;;;;;;5035180;28;20177;-39
2022/07/13 04:47:02;;;;;;;5.87;1.90;;;19.40;99.90;;;;;;5033722;28;20172;-39
2022/07/13 04:49:28;;;;;;;1.73;1.40;;;19.40;99.90;;;;;;5033378;28;20706;-38
2022/07/13 04:51:53;;;;;;;3.93;1.90;;;19.50;99.90;;;;;;5033130;28;20173;-41
2022/07/13 04:54:20;;;;;;;7.13;1.80;;;19.50;99.90;;;;;;5033080;28;20181;-39
2022/07/13 04:56:46;;;;;;;3.93;1.97;;;19.50;99.90;;;;;;5033004;28;20181;-40
2022/07/13 04:59:13;;;;;;;4.80;2.10;;;19.60;99.90;;;;;;5032916;28;20213;-40
2022/07/13 05:01:38;;;;;;;6.57;1.93;;;19.50;99.90;;;;;;5033352;28;20180;-41
2022/07/13 05:04:04;;;;;;;3.43;1.70;;;19.60;99.90;;;;;;5034804;28;20173;-41
2022/07/13 05:06:31;;;;;;;6.67;1.57;;;19.60;99.90;;;;;;5034616;28;20668;-40
2022/07/13 05:08:57;;;;;;;5.20;1.90;;;19.60;99.90;;;;;;5033210;28;20184;-37
2022/07/13 05:11:22;;;;;;;4.20;2.17;;;19.60;99.90;;;;;;5032856;28;20219;-40
2022/07/13 05:13:48;;;;;;;12.30;2.10;;;19.60;99.90;;;;;;5032805;28;20268;-40
2022/07/13 05:16:14;;;;;;;6.80;1.90;;;19.70;99.90;;;;;;5032757;28;20188;-39
2022/07/13 05:18:40;;;;;;;5.10;1.90;;;19.70;99.90;;;;;;5032716;28;20275;-39
2022/07/13 05:21:05;;;;;;;7.73;2.10;;;19.70;99.90;;;;;;5032710;28;20201;-40
2022/07/13 05:23:31;;;;;;;6.73;2.10;;;19.70;99.90;;;;;;5033217;28;20587;-40
2022/07/13 05:25:57;;;;;;;5.47;1.70;;;19.80;99.90;;;;;;5035582;28;20173;-40
2022/07/13 05:28:23;;;;;;;15.60;2.20;;;19.80;99.90;;;;;;5036540;28;20235;-40
2022/07/13 05:30:48;;;;;;;3.73;1.80;;;19.80;99.90;;;;;;5036129;28;20255;-40
2022/07/13 05:33:16;;;;;;;4.00;1.73;;;19.90;99.90;;;;;;5036452;28;20276;-41
2022/07/13 05:35:42;;;;;;;7.43;2.00;;;20.00;99.90;;;;;;5035136;28;20181;-40
2022/07/13 05:38:07;;;;;;;4.47;1.60;;;20.00;99.90;;;;;;5036823;28;20561;-41
2022/07/13 05:40:33;;;;;;;4.20;1.93;;;20.10;99.90;;;;;;5035998;28;20196;-41
2022/07/13 05:42:59;;;;;;;7.50;1.80;;;20.10;99.90;;;;;;5036298;28;20177;-39
2022/07/13 05:45:25;;;;;;;4.03;1.90;;;20.20;99.90;;;;;;5036067;28;20636;-42
2022/07/13 05:47:51;;;;;;;5.20;2.17;;;20.30;99.90;;;;;;5036216;28;20226;-39
2022/07/13 05:50:17;;;;;;;3.73;2.00;;;20.40;99.90;;;;;;5035839;28;20201;-40
2022/07/13 05:52:43;;;;;;;4.17;1.97;;;20.50;99.90;;;;;;5034599;28;20181;-39
2022/07/13 05:55:10;;;;;;;2.70;1.60;;;20.50;99.90;;;;;;5036924;28;20192;-41
2022/07/13 05:57:36;;;;;;;7.10;1.83;;;20.70;99.90;;;;;;5035933;28;20562;-40
2022/07/13 06:00:05;;;;;;;6.17;2.13;;;20.80;99.90;;;;;;5034366;28;20201;-42
2022/07/13 06:02:31;;;;;;;3.80;1.77;;;20.90;99.90;;;;;;5035775;28;20545;-41
2022/07/13 06:04:57;;;;;;;7.57;2.20;;;21.10;99.90;;;;;;5035779;28;20255;-40
2022/07/13 06:07:22;;;;;;;3.57;2.20;;;21.20;99.90;;;;;;5035855;28;20267;-40
2022/07/13 06:09:49;;;;;;;3.60;1.80;;;21.30;99.90;;;;;;5035607;28;20208;-40
2022/07/13 06:12:15;;;;;;;2.47;1.90;;;21.40;99.90;;;;;;5035958;28;20552;-40
2022/07/13 06:14:41;;;;;;;3.60;1.70;;;21.50;99.90;;;;;;5035839;28;20188;-40
2022/07/13 06:17:06;;;;;;;6.37;2.20;;;21.60;99.90;;;;;;5035317;28;20584;-40
2022/07/13 06:19:33;;;;;;;5.60;2.13;;;21.70;99.90;;;;;;5035819;28;20189;-40
2022/07/13 06:21:59;;;;;;;8.00;2.03;;;21.70;99.90;;;;;;5035771;28;20540;-38
2022/07/13 06:24:25;;;;;;;4.87;2.50;;;22.00;99.90;;;;;;5036003;28;20173;-40
2022/07/13 06:26:51;;;;;;;3.87;1.90;;;21.80;99.90;;;;;;5035725;28;20226;-40
2022/07/13 06:29:17;;;;;;;5.03;1.70;;;22.00;99.90;;;;;;5035231;28;20280;-39
2022/07/13 06:31:42;;;;;;;3.87;1.80;;;22.10;99.90;;;;;;5035483;28;20177;-37
2022/07/13 06:34:08;;;;;;;4.43;1.90;;;22.20;99.90;;;;;;5035468;28;20180;-39
2022/07/13 06:36:34;;;;;;;3.50;2.07;;;22.30;99.90;;;;;;5033951;28;20207;-40
2022/07/13 06:39:00;;;;;;;6.90;2.00;;;22.50;99.90;;;;;;5034946;28;20239;-40
2022/07/13 06:41:26;;;;;;;2.00;1.80;;;22.60;99.90;;;;;;5036313;28;20185;-37
2022/07/13 06:43:51;;;;;;;3.30;1.80;;;22.90;99.90;;;;;;5034913;28;20192;-38
2022/07/13 06:46:17;;;;;;;1.53;1.43;;;23.10;99.90;;;;;;5034930;28;20181;-39
2022/07/13 06:48:42;;;;;;;4.33;1.83;;;23.50;99.90;;;;;;5033559;28;20195;-39
2022/07/13 06:51:08;;;;;;;2.00;1.67;;;23.70;99.90;;;;;;5034829;28;20645;-37
2022/07/13 06:53:34;;;;;;;2.20;1.87;;;23.80;99.90;;;;;;5034829;28;20601;-39
2022/07/13 06:55:59;;;;;;;2.30;1.67;;;23.80;99.90;;;;;;5034950;28;20219;-38
2022/07/13 06:58:25;;;;;;;5.07;1.97;;;23.90;99.90;;;;;;5034844;28;20209;-39
2022/07/13 07:00:51;;;;;;;2.00;1.63;;;23.90;99.90;;;;;;5034564;28;20266;-39
2022/07/13 07:03:18;;;;;;;2.17;1.63;;;23.90;99.90;;;;;;5034839;28;20181;-40
2022/07/13 07:05:43;;;;;;;2.80;1.93;;;23.90;99.90;;;;;;5034803;28;20181;-40
2022/07/13 07:08:09;;;;;;;2.93;1.80;;;24.00;99.90;;;;;;5034599;28;20211;-37
2022/07/13 07:10:34;;;;;;;2.00;1.90;;;24.10;99.90;;;;;;5034346;28;20235;-38
2022/07/13 07:13:00;;;;;;;2.50;1.80;;;24.10;99.90;;;;;;5034293;28;20177;-40
2022/07/13 07:15:26;;;;;;;4.97;1.70;;;24.20;99.90;;;;;;5034345;28;20185;-41
2022/07/13 07:17:51;;;;;;;1.67;1.57;;;24.30;99.90;;;;;;5034190;28;20217;-41
2022/07/13 07:20:18;;;;;;;3.97;1.60;;;24.40;99.90;;;;;;5034446;28;20334;-38
2022/07/13 07:22:46;;;;;;;3.90;1.83;;;24.40;99.90;;;;;;5034454;28;20598;-40
2022/07/13 07:25:13;;;;;;;4.97;2.00;;;24.40;99.90;;;;;;5034445;28;20256;-38
2022/07/13 07:27:40;;;;;;;3.23;1.93;;;24.40;99.90;;;;;;5034593;28;20184;-39
2022/07/13 07:30:06;;;;;;;2.33;2.00;;;24.30;99.90;;;;;;5034161;28;20193;-38
2022/07/13 07:32:32;;;;;;;3.93;2.00;;;24.20;99.90;;;;;;5034063;28;20192;-39
2022/07/13 07:34:58;;;;;;;2.83;2.20;;;24.10;99.90;;;;;;5034289;28;20181;-40
2022/07/13 07:37:23;;;;;;;4.03;2.00;;;24.00;99.90;;;;;;5034216;28;20200;-40
2022/07/13 07:39:49;;;;;;;6.97;1.97;;;23.90;99.90;;;;;;5034711;28;20243;-39
2022/07/13 07:42:15;;;;;;;2.63;2.17;;;23.80;99.90;;;;;;5033952;28;20181;-40
2022/07/13 07:44:41;;;;;;;5.33;1.93;;;23.80;99.90;;;;;;5034123;28;20181;-38
2022/07/13 07:47:07;;;;;;;3.53;2.27;;;23.80;99.90;;;;;;5033967;28;20260;-40
2022/07/13 07:49:32;;;;;;;3.77;1.80;;;23.80;99.90;;;;;;5033674;28;20209;-39
2022/07/13 07:51:58;;;;;;;4.57;2.17;;;23.80;99.90;;;;;;5035608;28;20181;-40
2022/07/13 07:54:24;;;;;;;3.97;1.57;;;23.80;99.90;;;;;;5033980;28;20543;-39
2022/07/13 07:56:50;;;;;;;2.43;1.90;;;23.80;99.90;;;;;;5033871;28;20295;-40
2022/07/13 07:59:16;;;;;;;2.73;1.80;;;23.90;99.90;;;;;;5033947;28;20215;-41
2022/07/13 08:01:42;;;;;;;2.37;1.57;;;24.10;99.90;;;;;;5033595;28;20546;-40
2022/07/13 08:04:07;;;;;;;2.63;1.77;;;24.20;99.90;;;;;;5034077;28;20311;-40
2022/07/13 08:06:33;;;;;;;2.93;1.57;;;24.40;99.90;;;;;;5034158;28;20181;-39
2022/07/13 08:08:59;;;;;;;3.83;1.80;;;24.50;99.90;;;;;;5033612;28;20585;-38
2022/07/13 08:11:25;;;;;;;1.70;1.40;;;24.70;99.90;;;;;;5034005;28;20195;-40
2022/07/13 08:13:51;;;;;;;3.37;1.60;;;24.80;99.90;;;;;;5033773;28;20180;-38
2022/07/13 08:16:18;;;;;;;2.20;1.57;;;24.90;99.90;;;;;;5033306;28;20208;-40
2022/07/13 08:18:44;;;;;;;7.97;1.70;;;25.00;99.90;;;;;;5033542;28;20255;-39
2022/07/13 08:21:10;;;;;;;1.90;1.70;;;25.00;99.90;;;;;;5033380;28;20264;-42
2022/07/13 08:23:51;;;;;;;3.20;1.57;;;25.10;99.90;;;;;;5033500;28;20664;-40
2022/07/13 08:26:25;;;;;;;1.63;1.53;;;25.20;99.90;;;;;;5033393;28;20161;-39
2022/07/13 08:28:51;;;;;;;2.20;1.67;;;25.50;99.90;;;;;;5033254;28;20173;-39
2022/07/13 08:31:20;;;;;;;1.63;1.53;;;25.80;99.90;;;;;;5033529;28;20219;-40
2022/07/13 08:39:13;;;;;;;4.80;1.50;;;26.20;99.90;;;;;;5035027;28;20258;-39
2022/07/13 08:41:40;;;;;;;2.40;1.67;;;26.50;99.90;;;;;;5033109;28;20181;-40
2022/07/13 08:44:06;;;;;;;1.80;1.43;;;26.70;99.90;;;;;;5033423;28;20528;-40
2022/07/13 08:46:32;;;;;;;3.07;1.90;;;26.80;99.90;;;;;;5033397;28;20215;-41
2022/07/13 08:48:58;;;;;;;2.80;1.70;;;27.00;99.90;;;;;;5031771;28;20201;-41
2022/07/13 08:51:25;;;;;;;3.50;1.50;;;27.20;99.90;;;;;;5033185;28;20680;-38
2022/07/13 08:53:52;;;;;;;3.63;1.70;;;27.40;99.90;;;;;;5033095;28;20173;-40
2022/07/13 08:56:18;;;;;;;2.50;2.13;;;27.50;99.90;;;;;;5033253;28;20589;-39
2022/07/13 08:58:44;;;;;;;2.90;1.60;;;27.60;99.90;;;;;;5033045;28;20219;-40
2022/07/13 09:01:10;;;;;;;2.30;1.50;;;27.60;99.90;;;;;;5036318;28;20177;-40
2022/07/13 09:03:36;;;;;;;2.27;1.77;;;27.60;99.90;;;;;;5037175;28;20177;-40
2022/07/13 09:06:02;;;;;;;5.67;1.60;;;27.60;99.90;;;;;;5037069;28;20177;-40
2022/07/13 09:08:28;;;;;;;2.27;1.73;;;27.70;99.90;;;;;;5036901;28;20589;-40
2022/07/13 09:10:57;;;;;;;2.53;1.67;;;27.90;99.90;;;;;;5036423;28;20201;-40
2022/07/13 09:13:47;;;;;;;2.70;1.90;;;28.00;99.90;;;;;;5038475;28;20173;-40
2022/07/13 09:16:22;;;;;;;7.70;2.20;;;28.20;99.90;;;;;;5037607;28;20158;-37
2022/07/13 09:18:59;;;;;;;3.40;1.77;;;28.40;99.90;;;;;;5036959;28;20184;-40
2022/07/13 09:21:26;;;;;;;3.53;1.43;;;28.50;99.90;;;;;;5036817;28;20188;-40
2022/07/13 09:23:57;;;;;;;2.47;1.70;;;28.50;99.90;;;;;;5036352;28;20180;-40
2022/07/13 09:26:23;;;;;;;2.60;1.83;;;28.50;99.90;;;;;;5036418;28;20637;-39
2022/07/13 09:28:50;;;;;;;6.43;2.07;;;28.60;99.90;;;;;;5036521;28;20211;-40
2022/07/13 09:31:18;;;;;;;3.50;2.20;;;28.70;99.90;;;;;;5036600;28;20184;-40
2022/07/13 09:33:46;;;;;;;5.40;1.90;;;28.80;99.90;;;;;;5036492;28;20184;-40
2022/07/13 09:36:16;;;;;;;10.13;2.13;;;28.90;99.90;;;;;;5036275;28;20188;-41
2022/07/13 09:38:46;;;;;;;4.70;1.80;;;28.90;99.90;;;;;;5036330;28;20205;-40
2022/07/13 09:41:14;;;;;;;2.60;1.73;;;28.80;99.90;;;;;;5036459;28;20242;-39
2022/07/13 09:46:51;;;;;;;3.03;1.77;;;28.60;99.90;;;;;;5036039;28;20161;-40
2022/07/13 09:49:18;;;;;;;2.53;1.63;;;28.50;99.90;;;;;;5036537;28;20193;-42
2022/07/13 09:51:44;;;;;;;2.33;2.00;;;28.40;99.90;;;;;;5036023;28;20173;-42
2022/07/13 09:54:11;;;;;;;4.60;1.80;;;28.30;99.90;;;;;;5036224;28;20173;-44
2022/07/13 09:56:43;;;;;;;6.73;1.80;;;28.20;99.90;;;;;;5035789;28;20169;-42
2022/07/13 09:59:09;;;;;;;5.97;1.80;;;28.30;99.90;;;;;;5035945;28;20212;-43
2022/07/13 10:01:35;;;;;;;3.43;1.83;;;28.20;99.90;;;;;;5036021;28;20173;-44
2022/07/13 10:04:02;;;;;;;4.23;1.80;;;28.20;99.90;;;;;;5035654;28;20181;-43
2022/07/13 10:06:28;;;;;;;3.00;1.83;;;28.20;99.90;;;;;;5036157;28;20524;-43
2022/07/13 10:08:54;;;;;;;7.90;1.87;;;28.20;99.90;;;;;;5035641;28;20185;-43
2022/07/13 10:11:20;;;;;;;2.63;1.90;;;28.30;99.90;;;;;;5035737;28;20263;-42
2022/07/13 10:13:46;;;;;;;6.33;2.30;;;28.30;99.90;;;;;;5035457;28;20280;-42
2022/07/13 10:16:12;;;;;;;4.73;1.70;;;28.30;99.90;;;;;;5035620;28;20185;-42
2022/07/13 10:18:41;;;;;;;3.03;1.80;;;28.50;99.90;;;;;;5035281;28;20211;-42
2022/07/13 10:21:26;;;;;;;2.43;1.67;;;28.70;99.90;;;;;;5035592;28;20212;-44
2022/07/13 10:23:52;;;;;;;4.50;2.20;;;28.80;99.90;;;;;;5035346;28;20252;-45
2022/07/13 10:26:22;;;;;;;5.60;2.20;;;28.80;99.90;;;;;;5035619;28;20638;-41
2022/07/13 10:29:11;;;;;;;2.73;1.60;;;28.80;99.90;;;;;;5035231;28;20682;-44
2022/07/13 10:31:40;;;;;;;3.00;1.70;;;28.80;99.90;;;;;;5035825;28;20566;-43
2022/07/13 10:34:07;;;;;;;2.27;1.43;;;28.80;99.90;;;;;;5035202;28;20169;-43
2022/07/13 10:36:48;;;;;;;2.37;1.40;;;28.80;99.90;;;;;;5035570;28;20181;-45
2022/07/13 10:39:14;;;;;;;1.77;1.50;;;28.90;99.90;;;;;;5035433;28;20231;-44
2022/07/13 10:42:01;;;;;;;3.47;1.40;;;29.00;99.90;;;;;;5035138;28;20641;-43
2022/07/13 10:44:32;;;;;;;6.93;1.90;;;29.10;99.90;;;;;;5035393;28;20585;-44
2022/07/13 10:46:58;;;;;;;2.27;1.53;;;29.20;99.90;;;;;;5034839;28;20200;-42
2022/07/13 10:49:32;;;;;;;2.03;1.67;;;29.10;99.90;;;;;;5034993;28;20228;-43
2022/07/13 10:55:09;;;;;;;7.67;1.67;;;29.40;99.90;;;;;;5028199;28;20219;-43
2022/07/13 10:57:39;;;;;;;3.67;1.30;;;29.40;99.90;;;;;;5035433;28;20201;-42
2022/07/13 11:00:19;;;;;;;6.07;1.60;;;29.60;99.90;;;;;;5034666;28;20616;-43
2022/07/13 11:02:47;;;;;;;3.40;1.97;;;29.70;99.90;;;;;;5035173;28;20157;-43
2022/07/13 11:05:13;;;;;;;4.63;1.60;;;29.80;99.90;;;;;;5034423;28;20216;-44
2022/07/13 11:07:41;;;;;;;3.47;1.50;;;29.90;99.90;;;;;;5034674;28;20613;-43
2022/07/13 11:10:28;;;;;;;3.50;1.50;;;30.00;99.90;;;;;;5034305;28;20192;-44
2022/07/13 11:13:12;;;;;;;5.30;1.60;;;30.20;99.90;;;;;;5034481;28;20167;-44
2022/07/13 11:15:48;;;;;;;2.80;1.60;;;30.30;99.90;;;;;;5034573;28;20176;-43
2022/07/13 11:18:22;;;;;;;11.70;1.60;;;30.20;99.90;;;;;;5034159;28;20668;-43
2022/07/13 11:21:16;;;;;;;2.83;1.30;;;30.20;99.90;;;;;;5034227;28;20204;-43
2022/07/13 11:26:48;;;;;;;2.40;1.48;;;30.10;99.90;;;;;;5034152;28;20299;-43
2022/07/13 11:29:44;;;;;;;3.33;1.67;;;30.20;99.90;;;;;;5034351;28;20219;-43
2022/07/13 11:32:10;;;;;;;3.78;1.50;;;30.40;99.90;;;;;;5034635;28;20264;-45
2022/07/13 11:34:36;;;;;;;6.57;1.60;;;30.60;99.90;;;;;;5032714;28;20201;-44
2022/07/13 11:37:03;;;;;;;4.88;1.33;;;30.70;99.90;;;;;;5034116;28;20212;-43
2022/07/13 11:39:33;;;;;;;3.50;1.20;;;30.90;99.90;;;;;;5033870;28;20622;-44
2022/07/13 11:42:01;;;;;;;1.50;1.23;;;31.00;99.90;;;;;;5034204;28;20551;-42
2022/07/13 11:44:29;;;;;;;2.83;1.40;;;31.10;99.90;;;;;;5033839;28;20173;-43
2022/07/13 11:46:56;;;;;;;4.15;1.35;;;31.20;99.90;;;;;;5034074;28;20180;-41
2022/07/13 11:49:24;;;;;;;3.03;1.20;;;31.40;99.90;;;;;;5033700;28;20231;-44
2022/07/13 11:51:50;;;;;;;5.80;1.38;;;31.50;99.90;;;;;;5033730;28;20642;-44
2022/07/13 11:54:19;;;;;;;3.00;1.50;;;31.60;99.90;;;;;;5033889;28;20584;-44
2022/07/13 11:56:46;;;;;;;12.55;2.58;;;31.70;99.10;;;;;;5033954;28;20176;-42
2022/07/13 11:59:11;;;;;;;2.92;1.10;;;31.70;99.90;;;;;;5033714;28;20204;-44
2022/07/13 12:01:38;;;;;;;5.15;1.67;;;31.80;99.30;;;;;;5033888;28;20227;-44
2022/07/13 12:04:05;;;;;;;7.13;1.85;;;31.90;99.90;;;;;;5033735;28;20169;-44
2022/07/13 12:06:31;;;;;;;1.27;0.90;;;32.00;99.20;;;;;;5033538;28;20586;-43
2022/07/13 12:08:56;;;;;;;2.38;1.33;;;32.00;99.60;;;;;;5033816;28;20216;-43
2022/07/13 12:11:22;;;;;;;6.03;1.17;;;32.20;99.90;;;;;;5033423;28;20589;-45
2022/07/13 12:13:48;;;;;;;4.07;1.42;;;32.30;99.90;;;;;;5033377;28;20268;-43
2022/07/13 12:16:15;;;;;;;2.85;1.42;;;32.40;98.90;;;;;;5033577;28;20614;-45
2022/07/13 12:19:04;;;;;;;5.78;0.98;;;32.40;98.70;;;;;;5033339;28;20205;-44
2022/07/13 12:21:32;;;;;;;1.45;0.93;;;32.40;98.60;;;;;;5033370;28;20173;-42
2022/07/13 12:23:59;;;;;;;3.08;0.95;;;32.40;99.60;;;;;;5033565;28;20259;-43
2022/07/13 12:26:26;;;;;;;2.50;0.95;;;32.30;98.00;;;;;;5033329;28;20255;-42
2022/07/13 12:28:52;;;;;;;2.60;1.10;;;32.30;98.40;;;;;;5033518;28;20157;-43
2022/07/13 12:31:20;;;;;;;4.30;1.10;;;32.30;99.90;;;;;;5033174;28;20637;-42
2022/07/13 12:33:48;;;;;;;1.02;0.95;;;32.30;99.90;;;;;;5034366;28;20192;-43
2022/07/13 12:36:15;;;;;;;2.70;1.10;;;32.30;99.00;;;;;;5037576;28;20185;-43
2022/07/13 12:39:03;;;;;;;3.17;1.23;;;32.40;98.30;;;;;;5037432;28;20243;-43
2022/07/13 12:41:32;;;;;;;3.08;0.95;;;32.40;99.20;;;;;;5037479;28;20188;-45
2022/07/13 12:44:05;;;;;;;6.60;1.20;;;32.60;98.40;;;;;;5037409;28;20548;-45
2022/07/13 12:46:54;;;;;;;5.25;1.13;;;32.80;97.10;;;;;;5037398;28;20165;-44
2022/07/13 12:49:35;;;;;;;2.30;1.10;;;32.90;98.30;;;;;;5037342;28;20279;-44
2022/07/13 12:52:11;;;;;;;3.08;1.30;;;33.10;97.90;;;;;;5037326;28;20197;-46
2022/07/13 12:54:48;;;;;;;2.40;1.52;;;33.10;96.50;;;;;;5037274;28;20168;-45
2022/07/13 12:57:25;;;;;;;7.22;1.48;;;33.10;98.20;;;;;;5037217;28;22049;-43
2022/07/13 13:00:01;;;;;;;4.40;1.25;;;33.00;96.40;;;;;;5037004;28;20597;-42